Laramie, Wyoming
Current Conditions -  °F | °C
As of 1:53 PM on Thursday 27 Nov 2014 (Local Time) from KLAR Reporting Station
Broken Clouds Broken Clouds  
Wind Chill: 40°   Ceiling: 12000
Heat Index: 48°   Visibility: 10mi
Dew Point: 21°   Wind: 29mph
Humidity: 34%   Direction: 280°W
Pressure: 30.17"   Gusts: 37mph
Location:  41.31°N, 105.59°W
Report Text: KLAR 272053Z AUTO 28025G32KT 10SM BKN120 09/M06 A3017 RMK AO2 PK WND 29033/2041 SLP177 T00891061 56016
Loading
Personal Weather Stations






























Interactive Weather Map New forecast layout! Learn more

10-Day Weather Forecast

Advertisements
Track Severe Weather on mobile